sensor_id;sensor_type;location;lat;lon;timestamp;temperature;humidity
11736;DHT22;5924;51.398;7.088;2024-02-21T00:00:55;8.20;99.90
11736;DHT22;5924;51.398;7.088;2024-02-21T00:03:21;8.20;99.90
11736;DHT22;5924;51.398;7.088;2024-02-21T00:05:47;8.20;99.90
11736;DHT22;5924;51.398;7.088;2024-02-21T00:08:12;8.20;99.90
11736;DHT22;5924;51.398;7.088;2024-02-21T00:10:38;8.20;99.90
11736;DHT22;5924;51.398;7.088;2024-02-21T00:13:04;8.20;99.90
11736;DHT22;5924;51.398;7.088;2024-02-21T00:15:29;8.20;99.90
11736;DHT22;5924;51.398;7.088;2024-02-21T00:17:55;8.20;99.90
11736;DHT22;5924;51.398;7.088;2024-02-21T00:20:21;8.20;99.90
11736;DHT22;5924;51.398;7.088;2024-02-21T00:22:47;8.20;99.90
11736;DHT22;5924;51.398;7.088;2024-02-21T00:25:12;8.20;99.90
11736;DHT22;5924;51.398;7.088;2024-02-21T00:27:38;8.20;99.90
11736;DHT22;5924;51.398;7.088;2024-02-21T00:30:07;8.20;99.90
11736;DHT22;5924;51.398;7.088;2024-02-21T00:32:33;8.20;99.90
11736;DHT22;5924;51.398;7.088;2024-02-21T00:35:00;8.40;99.90
11736;DHT22;5924;51.398;7.088;2024-02-21T00:37:26;8.20;99.90
11736;DHT22;5924;51.398;7.088;2024-02-21T00:39:56;8.20;99.90
11736;DHT22;5924;51.398;7.088;2024-02-21T00:42:22;8.20;99.90
11736;DHT22;5924;51.398;7.088;2024-02-21T00:44:47;8.30;99.90
11736;DHT22;5924;51.398;7.088;2024-02-21T00:47:13;8.20;99.90
11736;DHT22;5924;51.398;7.088;2024-02-21T00:49:39;8.20;99.90
11736;DHT22;5924;51.398;7.088;2024-02-21T00:52:04;8.20;99.90
11736;DHT22;5924;51.398;7.088;2024-02-21T00:54:30;8.30;99.90
11736;DHT22;5924;51.398;7.088;2024-02-21T00:56:55;8.30;99.90
11736;DHT22;5924;51.398;7.088;2024-02-21T00:59:21;8.20;99.90
11736;DHT22;5924;51.398;7.088;2024-02-21T01:01:47;8.20;99.90
11736;DHT22;5924;51.398;7.088;2024-02-21T01:04:12;8.20;99.90
11736;DHT22;5924;51.398;7.088;2024-02-21T01:06:38;8.20;99.90
11736;DHT22;5924;51.398;7.088;2024-02-21T01:09:04;8.20;99.90
11736;DHT22;5924;51.398;7.088;2024-02-21T01:11:29;8.20;99.90
11736;DHT22;5924;51.398;7.088;2024-02-21T01:13:55;8.20;99.90
11736;DHT22;5924;51.398;7.088;2024-02-21T01:16:21;8.20;99.90
11736;DHT22;5924;51.398;7.088;2024-02-21T01:18:47;8.20;99.90
11736;DHT22;5924;51.398;7.088;2024-02-21T01:21:12;8.20;99.90
11736;DHT22;5924;51.398;7.088;2024-02-21T01:23:38;8.20;99.90
11736;DHT22;5924;51.398;7.088;2024-02-21T01:26:04;8.20;99.90
11736;DHT22;5924;51.398;7.088;2024-02-21T01:28:30;8.20;99.90
11736;DHT22;5924;51.398;7.088;2024-02-21T01:30:58;8.20;99.90
11736;DHT22;5924;51.398;7.088;2024-02-21T01:33:24;8.10;99.90
11736;DHT22;5924;51.398;7.088;2024-02-21T01:35:50;8.20;99.90
11736;DHT22;5924;51.398;7.088;2024-02-21T01:38:16;8.70;99.90
11736;DHT22;5924;51.398;7.088;2024-02-21T01:40:41;8.10;99.90
11736;DHT22;5924;51.398;7.088;2024-02-21T01:43:17;8.10;99.90
11736;DHT22;5924;51.398;7.088;2024-02-21T01:45:48;8.10;99.90
11736;DHT22;5924;51.398;7.088;2024-02-21T01:48:15;8.10;99.90
11736;DHT22;5924;51.398;7.088;2024-02-21T01:50:41;8.10;99.90
11736;DHT22;5924;51.398;7.088;2024-02-21T01:53:07;8.10;99.90
11736;DHT22;5924;51.398;7.088;2024-02-21T01:55:33;8.10;99.90
11736;DHT22;5924;51.398;7.088;2024-02-21T01:57:59;8.10;99.90
11736;DHT22;5924;51.398;7.088;2024-02-21T02:00:25;8.10;99.90
11736;DHT22;5924;51.398;7.088;2024-02-21T02:02:51;8.10;99.90
11736;DHT22;5924;51.398;7.088;2024-02-21T02:05:18;8.10;99.90
11736;DHT22;5924;51.398;7.088;2024-02-21T02:07:46;8.10;99.90
11736;DHT22;5924;51.398;7.088;2024-02-21T02:10:12;8.10;99.90
11736;DHT22;5924;51.398;7.088;2024-02-21T02:12:38;8.10;99.90
11736;DHT22;5924;51.398;7.088;2024-02-21T02:15:04;9.20;99.90
11736;DHT22;5924;51.398;7.088;2024-02-21T02:17:30;8.10;99.90
11736;DHT22;5924;51.398;7.088;2024-02-21T02:19:56;8.10;99.90
11736;DHT22;5924;51.398;7.088;2024-02-21T02:22:28;8.10;99.90
11736;DHT22;5924;51.398;7.088;2024-02-21T02:24:55;8.10;99.90
11736;DHT22;5924;51.398;7.088;2024-02-21T02:27:21;8.10;99.90
11736;DHT22;5924;51.398;7.088;2024-02-21T02:29:48;8.10;99.90
11736;DHT22;5924;51.398;7.088;2024-02-21T02:32:14;8.10;99.90
11736;DHT22;5924;51.398;7.088;2024-02-21T02:34:40;8.00;99.90
11736;DHT22;5924;51.398;7.088;2024-02-21T02:37:06;8.00;99.90
11736;DHT22;5924;51.398;7.088;2024-02-21T02:39:31;8.00;99.90
11736;DHT22;5924;51.398;7.088;2024-02-21T02:41:57;8.00;99.90
11736;DHT22;5924;51.398;7.088;2024-02-21T02:44:23;7.90;99.90
11736;DHT22;5924;51.398;7.088;2024-02-21T02:46:48;8.00;99.90
11736;DHT22;5924;51.398;7.088;2024-02-21T02:49:14;7.90;99.90
11736;DHT22;5924;51.398;7.088;2024-02-21T02:51:43;7.90;99.90
11736;DHT22;5924;51.398;7.088;2024-02-21T02:54:09;7.90;99.90
11736;DHT22;5924;51.398;7.088;2024-02-21T02:56:35;7.80;99.90
11736;DHT22;5924;51.398;7.088;2024-02-21T02:59:01;7.80;99.90
11736;DHT22;5924;51.398;7.088;2024-02-21T03:01:26;7.80;99.90
11736;DHT22;5924;51.398;7.088;2024-02-21T03:03:52;7.80;99.90
11736;DHT22;5924;51.398;7.088;2024-02-21T03:06:19;7.80;99.90
11736;DHT22;5924;51.398;7.088;2024-02-21T03:08:44;8.40;99.90
11736;DHT22;5924;51.398;7.088;2024-02-21T03:11:10;7.80;99.90
11736;DHT22;5924;51.398;7.088;2024-02-21T03:13:36;7.80;99.90
11736;DHT22;5924;51.398;7.088;2024-02-21T03:16:02;7.80;99.90
11736;DHT22;5924;51.398;7.088;2024-02-21T03:18:28;7.80;99.90
11736;DHT22;5924;51.398;7.088;2024-02-21T03:20:53;7.70;99.90
11736;DHT22;5924;51.398;7.088;2024-02-21T03:23:19;7.70;99.90
11736;DHT22;5924;51.398;7.088;2024-02-21T03:25:45;7.70;99.90
11736;DHT22;5924;51.398;7.088;2024-02-21T03:28:11;7.80;99.90
11736;DHT22;5924;51.398;7.088;2024-02-21T03:30:36;7.80;99.90
11736;DHT22;5924;51.398;7.088;2024-02-21T03:33:02;8.00;99.90
11736;DHT22;5924;51.398;7.088;2024-02-21T03:35:28;7.90;99.90
11736;DHT22;5924;51.398;7.088;2024-02-21T03:37:54;7.90;99.90
11736;DHT22;5924;51.398;7.088;2024-02-21T03:40:20;7.90;99.90
11736;DHT22;5924;51.398;7.088;2024-02-21T03:42:45;7.90;99.90
11736;DHT22;5924;51.398;7.088;2024-02-21T03:45:11;7.90;99.90
11736;DHT22;5924;51.398;7.088;2024-02-21T03:47:37;7.90;99.90
11736;DHT22;5924;51.398;7.088;2024-02-21T03:50:02;7.90;99.90
11736;DHT22;5924;51.398;7.088;2024-02-21T03:52:28;7.90;99.90
11736;DHT22;5924;51.398;7.088;2024-02-21T03:54:54;7.90;99.90
11736;DHT22;5924;51.398;7.088;2024-02-21T03:57:20;7.90;99.90
11736;DHT22;5924;51.398;7.088;2024-02-21T03:59:46;7.90;99.90
11736;DHT22;5924;51.398;7.088;2024-02-21T04:02:15;7.90;99.90
11736;DHT22;5924;51.398;7.088;2024-02-21T04:04:43;7.90;99.90
11736;DHT22;5924;51.398;7.088;2024-02-21T04:07:12;7.90;99.90
11736;DHT22;5924;51.398;7.088;2024-02-21T04:09:37;8.00;99.90
11736;DHT22;5924;51.398;7.088;2024-02-21T04:12:03;8.00;99.90
11736;DHT22;5924;51.398;7.088;2024-02-21T04:14:29;8.00;99.90
11736;DHT22;5924;51.398;7.088;2024-02-21T04:16:55;8.00;99.90
11736;DHT22;5924;51.398;7.088;2024-02-21T04:19:21;8.00;99.90
11736;DHT22;5924;51.398;7.088;2024-02-21T04:21:46;9.10;99.90
11736;DHT22;5924;51.398;7.088;2024-02-21T04:24:12;8.10;99.90
11736;DHT22;5924;51.398;7.088;2024-02-21T04:26:38;8.00;99.90
11736;DHT22;5924;51.398;7.088;2024-02-21T04:29:03;8.00;99.90
11736;DHT22;5924;51.398;7.088;2024-02-21T04:31:29;8.00;99.90
11736;DHT22;5924;51.398;7.088;2024-02-21T04:33:55;8.00;99.90
11736;DHT22;5924;51.398;7.088;2024-02-21T04:36:20;8.00;99.90
11736;DHT22;5924;51.398;7.088;2024-02-21T04:38:46;8.00;99.90
11736;DHT22;5924;51.398;7.088;2024-02-21T04:41:12;8.10;99.90
11736;DHT22;5924;51.398;7.088;2024-02-21T04:43:37;8.00;99.90
11736;DHT22;5924;51.398;7.088;2024-02-21T04:46:04;8.00;99.90
11736;DHT22;5924;51.398;7.088;2024-02-21T04:48:29;8.00;99.90
11736;DHT22;5924;51.398;7.088;2024-02-21T04:50:55;8.00;99.90
11736;DHT22;5924;51.398;7.088;2024-02-21T04:53:21;8.00;99.90
11736;DHT22;5924;51.398;7.088;2024-02-21T04:55:47;8.00;99.90
11736;DHT22;5924;51.398;7.088;2024-02-21T04:58:13;8.00;99.90
11736;DHT22;5924;51.398;7.088;2024-02-21T05:00:38;8.00;99.90
11736;DHT22;5924;51.398;7.088;2024-02-21T05:03:04;8.00;99.90
11736;DHT22;5924;51.398;7.088;2024-02-21T05:05:30;8.00;99.90
11736;DHT22;5924;51.398;7.088;2024-02-21T05:07:55;8.00;99.90
11736;DHT22;5924;51.398;7.088;2024-02-21T05:10:21;8.00;99.90
11736;DHT22;5924;51.398;7.088;2024-02-21T05:12:47;9.10;99.90
11736;DHT22;5924;51.398;7.088;2024-02-21T05:15:12;8.00;99.90
11736;DHT22;5924;51.398;7.088;2024-02-21T05:17:38;8.00;99.90
11736;DHT22;5924;51.398;7.088;2024-02-21T05:20:04;8.00;99.90
11736;DHT22;5924;51.398;7.088;2024-02-21T05:22:31;8.00;99.90
11736;DHT22;5924;51.398;7.088;2024-02-21T05:24:56;8.10;99.90
11736;DHT22;5924;51.398;7.088;2024-02-21T05:27:23;8.00;99.90
11736;DHT22;5924;51.398;7.088;2024-02-21T05:29:49;8.00;99.90
11736;DHT22;5924;51.398;7.088;2024-02-21T05:32:15;8.10;99.90
11736;DHT22;5924;51.398;7.088;2024-02-21T05:34:41;8.00;99.90
11736;DHT22;5924;51.398;7.088;2024-02-21T05:37:07;8.00;99.90
11736;DHT22;5924;51.398;7.088;2024-02-21T05:39:33;8.00;99.90
11736;DHT22;5924;51.398;7.088;2024-02-21T05:41:58;8.00;99.90
11736;DHT22;5924;51.398;7.088;2024-02-21T05:44:24;8.00;99.90
11736;DHT22;5924;51.398;7.088;2024-02-21T05:46:51;8.00;99.90
11736;DHT22;5924;51.398;7.088;2024-02-21T05:49:16;8.00;99.90
11736;DHT22;5924;51.398;7.088;2024-02-21T05:51:42;8.00;99.90
11736;DHT22;5924;51.398;7.088;2024-02-21T05:54:08;8.00;99.90
11736;DHT22;5924;51.398;7.088;2024-02-21T05:56:33;8.00;99.90
11736;DHT22;5924;51.398;7.088;2024-02-21T05:58:59;8.10;99.90
11736;DHT22;5924;51.398;7.088;2024-02-21T06:01:25;8.00;99.90
11736;DHT22;5924;51.398;7.088;2024-02-21T06:03:51;8.00;99.90
11736;DHT22;5924;51.398;7.088;2024-02-21T06:06:16;8.00;99.90
11736;DHT22;5924;51.398;7.088;2024-02-21T06:08:42;8.00;99.90
11736;DHT22;5924;51.398;7.088;2024-02-21T06:11:08;8.00;99.90
11736;DHT22;5924;51.398;7.088;2024-02-21T06:13:37;8.00;99.90
11736;DHT22;5924;51.398;7.088;2024-02-21T06:16:03;8.00;99.90
11736;DHT22;5924;51.398;7.088;2024-02-21T06:18:29;8.10;99.90
11736;DHT22;5924;51.398;7.088;2024-02-21T06:20:54;8.10;99.90
11736;DHT22;5924;51.398;7.088;2024-02-21T06:23:20;8.10;99.90
11736;DHT22;5924;51.398;7.088;2024-02-21T06:25:45;8.10;99.90
11736;DHT22;5924;51.398;7.088;2024-02-21T06:28:13;8.10;99.90
11736;DHT22;5924;51.398;7.088;2024-02-21T06:30:40;8.10;99.90
11736;DHT22;5924;51.398;7.088;2024-02-21T06:33:05;8.10;99.90
11736;DHT22;5924;51.398;7.088;2024-02-21T06:35:33;8.10;99.90
11736;DHT22;5924;51.398;7.088;2024-02-21T06:37:59;8.10;99.90
11736;DHT22;5924;51.398;7.088;2024-02-21T06:40:24;8.10;99.90
11736;DHT22;5924;51.398;7.088;2024-02-21T06:42:50;8.10;99.90
11736;DHT22;5924;51.398;7.088;2024-02-21T06:45:16;8.00;99.90
11736;DHT22;5924;51.398;7.088;2024-02-21T06:47:42;8.10;99.90
11736;DHT22;5924;51.398;7.088;2024-02-21T06:50:09;8.10;99.90
11736;DHT22;5924;51.398;7.088;2024-02-21T06:52:35;8.10;99.90
11736;DHT22;5924;51.398;7.088;2024-02-21T06:55:01;8.10;99.90
11736;DHT22;5924;51.398;7.088;2024-02-21T06:57:28;8.10;99.90
11736;DHT22;5924;51.398;7.088;2024-02-21T06:59:54;8.20;99.90
11736;DHT22;5924;51.398;7.088;2024-02-21T07:02:20;8.20;99.90
11736;DHT22;5924;51.398;7.088;2024-02-21T07:04:45;9.90;99.90
11736;DHT22;5924;51.398;7.088;2024-02-21T07:07:11;8.20;99.90
11736;DHT22;5924;51.398;7.088;2024-02-21T07:09:38;8.20;99.90
11736;DHT22;5924;51.398;7.088;2024-02-21T07:12:04;8.20;99.90
11736;DHT22;5924;51.398;7.088;2024-02-21T07:14:32;8.30;99.90
11736;DHT22;5924;51.398;7.088;2024-02-21T07:16:57;8.20;99.90
11736;DHT22;5924;51.398;7.088;2024-02-21T07:19:23;8.30;99.90
11736;DHT22;5924;51.398;7.088;2024-02-21T07:21:49;8.30;99.90
11736;DHT22;5924;51.398;7.088;2024-02-21T07:24:15;8.30;99.90
11736;DHT22;5924;51.398;7.088;2024-02-21T07:26:44;8.30;99.90
11736;DHT22;5924;51.398;7.088;2024-02-21T07:29:10;8.40;99.90
11736;DHT22;5924;51.398;7.088;2024-02-21T07:31:41;8.40;99.90
11736;DHT22;5924;51.398;7.088;2024-02-21T07:34:07;8.40;99.90
11736;DHT22;5924;51.398;7.088;2024-02-21T07:36:33;8.50;99.90
11736;DHT22;5924;51.398;7.088;2024-02-21T07:38:58;8.50;99.90
11736;DHT22;5924;51.398;7.088;2024-02-21T07:41:25;8.50;99.90
11736;DHT22;5924;51.398;7.088;2024-02-21T07:43:51;8.60;99.90
11736;DHT22;5924;51.398;7.088;2024-02-21T07:46:18;8.60;99.90
11736;DHT22;5924;51.398;7.088;2024-02-21T07:48:45;8.60;99.90
11736;DHT22;5924;51.398;7.088;2024-02-21T07:51:11;8.70;99.90
11736;DHT22;5924;51.398;7.088;2024-02-21T07:53:38;8.70;99.90
11736;DHT22;5924;51.398;7.088;2024-02-21T07:56:04;8.70;99.90
11736;DHT22;5924;51.398;7.088;2024-02-21T07:58:30;8.70;99.90
11736;DHT22;5924;51.398;7.088;2024-02-21T08:00:56;8.80;99.90
11736;DHT22;5924;51.398;7.088;2024-02-21T08:03:21;8.80;99.90
11736;DHT22;5924;51.398;7.088;2024-02-21T08:05:48;7.10;99.90
11736;DHT22;5924;51.398;7.088;2024-02-21T08:08:14;8.80;99.90
11736;DHT22;5924;51.398;7.088;2024-02-21T08:10:43;8.80;99.90
11736;DHT22;5924;51.398;7.088;2024-02-21T08:13:09;8.80;99.90
11736;DHT22;5924;51.398;7.088;2024-02-21T08:15:35;8.80;99.90
11736;DHT22;5924;51.398;7.088;2024-02-21T08:18:00;8.90;99.90
11736;DHT22;5924;51.398;7.088;2024-02-21T08:20:27;8.90;99.90
11736;DHT22;5924;51.398;7.088;2024-02-21T08:22:53;8.90;99.90
11736;DHT22;5924;51.398;7.088;2024-02-21T08:25:18;9.00;99.90
11736;DHT22;5924;51.398;7.088;2024-02-21T08:27:44;9.00;99.90
11736;DHT22;5924;51.398;7.088;2024-02-21T08:30:11;9.00;99.90
11736;DHT22;5924;51.398;7.088;2024-02-21T08:32:37;9.00;99.90
11736;DHT22;5924;51.398;7.088;2024-02-21T08:35:03;9.00;99.90
11736;DHT22;5924;51.398;7.088;2024-02-21T08:37:28;9.00;99.90
11736;DHT22;5924;51.398;7.088;2024-02-21T08:39:54;9.00;99.90
11736;DHT22;5924;51.398;7.088;2024-02-21T08:42:20;8.90;99.90
11736;DHT22;5924;51.398;7.088;2024-02-21T08:44:46;8.90;99.90
11736;DHT22;5924;51.398;7.088;2024-02-21T08:47:11;8.80;99.90
11736;DHT22;5924;51.398;7.088;2024-02-21T08:49:38;8.80;99.90
11736;DHT22;5924;51.398;7.088;2024-02-21T08:52:03;9.20;99.90
11736;DHT22;5924;51.398;7.088;2024-02-21T08:54:30;8.80;99.90
11736;DHT22;5924;51.398;7.088;2024-02-21T08:56:56;8.80;99.90
11736;DHT22;5924;51.398;7.088;2024-02-21T08:59:22;8.70;99.90
11736;DHT22;5924;51.398;7.088;2024-02-21T09:01:48;8.70;99.90
11736;DHT22;5924;51.398;7.088;2024-02-21T09:04:13;8.60;99.90
11736;DHT22;5924;51.398;7.088;2024-02-21T09:06:39;8.60;99.90
11736;DHT22;5924;51.398;7.088;2024-02-21T09:09:08;8.60;99.90
11736;DHT22;5924;51.398;7.088;2024-02-21T09:11:35;8.60;99.90
11736;DHT22;5924;51.398;7.088;2024-02-21T09:14:01;8.60;99.90
11736;DHT22;5924;51.398;7.088;2024-02-21T09:16:32;8.50;99.90
11736;DHT22;5924;51.398;7.088;2024-02-21T09:18:59;8.50;99.90
11736;DHT22;5924;51.398;7.088;2024-02-21T09:21:25;8.50;99.90
11736;DHT22;5924;51.398;7.088;2024-02-21T09:23:50;8.50;99.90
11736;DHT22;5924;51.398;7.088;2024-02-21T09:26:16;8.40;99.90
11736;DHT22;5924;51.398;7.088;2024-02-21T09:28:45;8.40;99.90
11736;DHT22;5924;51.398;7.088;2024-02-21T09:31:11;8.40;99.90
11736;DHT22;5924;51.398;7.088;2024-02-21T09:33:36;8.40;99.90
11736;DHT22;5924;51.398;7.088;2024-02-21T09:36:03;8.40;99.90
11736;DHT22;5924;51.398;7.088;2024-02-21T09:38:31;8.40;99.90
11736;DHT22;5924;51.398;7.088;2024-02-21T09:41:04;8.30;99.90
11736;DHT22;5924;51.398;7.088;2024-02-21T09:43:34;8.30;99.90
11736;DHT22;5924;51.398;7.088;2024-02-21T09:46:01;8.40;99.90
11736;DHT22;5924;51.398;7.088;2024-02-21T09:48:32;8.30;99.90
11736;DHT22;5924;51.398;7.088;2024-02-21T09:51:01;6.90;99.90
11736;DHT22;5924;51.398;7.088;2024-02-21T09:53:27;8.30;99.90
11736;DHT22;5924;51.398;7.088;2024-02-21T09:55:55;8.40;99.90
11736;DHT22;5924;51.398;7.088;2024-02-21T09:58:22;8.50;99.90
11736;DHT22;5924;51.398;7.088;2024-02-21T10:00:47;8.60;99.90
11736;DHT22;5924;51.398;7.088;2024-02-21T10:03:13;8.80;99.90
11736;DHT22;5924;51.398;7.088;2024-02-21T10:05:47;8.90;99.90
11736;DHT22;5924;51.398;7.088;2024-02-21T10:08:15;8.90;99.90
11736;DHT22;5924;51.398;7.088;2024-02-21T10:10:45;8.80;99.90
11736;DHT22;5924;51.398;7.088;2024-02-21T10:13:21;8.90;99.90
11736;DHT22;5924;51.398;7.088;2024-02-21T10:15:47;8.90;99.90
11736;DHT22;5924;51.398;7.088;2024-02-21T10:18:17;9.00;99.90
11736;DHT22;5924;51.398;7.088;2024-02-21T10:20:43;9.10;99.90
11736;DHT22;5924;51.398;7.088;2024-02-21T10:23:09;8.20;99.90
11736;DHT22;5924;51.398;7.088;2024-02-21T10:25:35;9.50;99.90
11736;DHT22;5924;51.398;7.088;2024-02-21T10:28:04;9.60;99.90
11736;DHT22;5924;51.398;7.088;2024-02-21T10:30:30;9.70;99.90
11736;DHT22;5924;51.398;7.088;2024-02-21T10:32:56;9.70;99.90
11736;DHT22;5924;51.398;7.088;2024-02-21T10:35:27;9.70;99.90
11736;DHT22;5924;51.398;7.088;2024-02-21T10:37:56;9.70;99.90
11736;DHT22;5924;51.398;7.088;2024-02-21T10:40:27;9.70;99.90
11736;DHT22;5924;51.398;7.088;2024-02-21T10:42:59;9.70;99.90
11736;DHT22;5924;51.398;7.088;2024-02-21T10:45:34;9.80;99.90
11736;DHT22;5924;51.398;7.088;2024-02-21T10:48:14;9.80;99.90
11736;DHT22;5924;51.398;7.088;2024-02-21T10:53:24;9.90;99.90
11736;DHT22;5924;51.398;7.088;2024-02-21T10:58:44;10.20;99.90
11736;DHT22;5924;51.398;7.088;2024-02-21T11:01:10;10.30;99.90
11736;DHT22;5924;51.398;7.088;2024-02-21T11:03:38;10.30;99.90
11736;DHT22;5924;51.398;7.088;2024-02-21T11:06:04;10.40;99.90
11736;DHT22;5924;51.398;7.088;2024-02-21T11:08:30;10.40;99.90
11736;DHT22;5924;51.398;7.088;2024-02-21T11:10:58;10.40;99.90
11736;DHT22;5924;51.398;7.088;2024-02-21T11:13:32;10.50;99.90
11736;DHT22;5924;51.398;7.088;2024-02-21T11:16:11;10.60;99.90
11736;DHT22;5924;51.398;7.088;2024-02-21T11:18:37;10.80;99.90
11736;DHT22;5924;51.398;7.088;2024-02-21T11:21:03;10.90;99.90
11736;DHT22;5924;51.398;7.088;2024-02-21T11:23:32;10.90;99.90
11736;DHT22;5924;51.398;7.088;2024-02-21T11:26:10;10.90;99.90
11736;DHT22;5924;51.398;7.088;2024-02-21T11:28:44;10.90;99.90
11736;DHT22;5924;51.398;7.088;2024-02-21T11:31:13;11.10;99.90
11736;DHT22;5924;51.398;7.088;2024-02-21T11:33:43;11.20;99.90
11736;DHT22;5924;51.398;7.088;2024-02-21T11:36:25;11.30;99.90
11736;DHT22;5924;51.398;7.088;2024-02-21T11:38:52;11.20;99.90
11736;DHT22;5924;51.398;7.088;2024-02-21T11:41:21;11.30;99.90
11736;DHT22;5924;51.398;7.088;2024-02-21T11:43:49;11.30;99.90
11736;DHT22;5924;51.398;7.088;2024-02-21T11:46:16;11.40;99.90
11736;DHT22;5924;51.398;7.088;2024-02-21T11:48:42;11.40;99.90
11736;DHT22;5924;51.398;7.088;2024-02-21T11:51:24;11.50;99.90
11736;DHT22;5924;51.398;7.088;2024-02-21T11:53:52;11.50;99.90
11736;DHT22;5924;51.398;7.088;2024-02-21T11:56:18;11.40;99.90
11736;DHT22;5924;51.398;7.088;2024-02-21T11:58:48;11.40;99.90
11736;DHT22;5924;51.398;7.088;2024-02-21T12:01:14;11.30;99.90
11736;DHT22;5924;51.398;7.088;2024-02-21T12:03:40;11.40;99.90
11736;DHT22;5924;51.398;7.088;2024-02-21T12:06:07;11.50;99.90
11736;DHT22;5924;51.398;7.088;2024-02-21T12:08:42;11.50;99.90
11736;DHT22;5924;51.398;7.088;2024-02-21T12:11:20;11.50;99.90
11736;DHT22;5924;51.398;7.088;2024-02-21T12:13:46;11.50;99.90
11736;DHT22;5924;51.398;7.088;2024-02-21T12:16:15;11.50;99.90
11736;DHT22;5924;51.398;7.088;2024-02-21T12:18:41;11.50;99.90
11736;DHT22;5924;51.398;7.088;2024-02-21T12:21:07;11.40;99.90
11736;DHT22;5924;51.398;7.088;2024-02-21T12:23:33;11.40;99.90
11736;DHT22;5924;51.398;7.088;2024-02-21T12:25:59;11.40;99.90
11736;DHT22;5924;51.398;7.088;2024-02-21T12:28:25;11.40;99.90
11736;DHT22;5924;51.398;7.088;2024-02-21T12:30:51;11.40;99.90
11736;DHT22;5924;51.398;7.088;2024-02-21T12:33:18;11.40;99.90
11736;DHT22;5924;51.398;7.088;2024-02-21T12:35:43;11.40;99.90
11736;DHT22;5924;51.398;7.088;2024-02-21T12:38:09;11.40;99.90
11736;DHT22;5924;51.398;7.088;2024-02-21T12:40:36;11.40;99.90
11736;DHT22;5924;51.398;7.088;2024-02-21T12:43:02;11.40;99.90
11736;DHT22;5924;51.398;7.088;2024-02-21T12:45:28;11.40;99.90
11736;DHT22;5924;51.398;7.088;2024-02-21T12:47:54;11.40;99.90
11736;DHT22;5924;51.398;7.088;2024-02-21T12:50:19;11.50;99.90
11736;DHT22;5924;51.398;7.088;2024-02-21T12:52:46;11.70;99.90
11736;DHT22;5924;51.398;7.088;2024-02-21T12:55:11;11.80;99.90
11736;DHT22;5924;51.398;7.088;2024-02-21T12:57:39;12.00;99.90
11736;DHT22;5924;51.398;7.088;2024-02-21T13:00:06;12.20;99.90
11736;DHT22;5924;51.398;7.088;2024-02-21T13:02:35;12.30;99.90
11736;DHT22;5924;51.398;7.088;2024-02-21T13:05:00;12.40;99.90
11736;DHT22;5924;51.398;7.088;2024-02-21T13:07:31;12.50;99.90
11736;DHT22;5924;51.398;7.088;2024-02-21T13:09:57;13.60;99.90
11736;DHT22;5924;51.398;7.088;2024-02-21T13:12:24;12.60;99.90
11736;DHT22;5924;51.398;7.088;2024-02-21T13:14:51;12.50;99.90
11736;DHT22;5924;51.398;7.088;2024-02-21T13:17:17;12.40;99.90
11736;DHT22;5924;51.398;7.088;2024-02-21T13:19:43;12.40;99.90
11736;DHT22;5924;51.398;7.088;2024-02-21T13:22:08;12.40;99.90
11736;DHT22;5924;51.398;7.088;2024-02-21T13:24:34;12.40;99.90
11736;DHT22;5924;51.398;7.088;2024-02-21T13:27:00;12.50;99.90
11736;DHT22;5924;51.398;7.088;2024-02-21T13:29:26;12.50;99.90
11736;DHT22;5924;51.398;7.088;2024-02-21T13:31:52;12.50;99.90
11736;DHT22;5924;51.398;7.088;2024-02-21T13:34:17;12.50;99.90
11736;DHT22;5924;51.398;7.088;2024-02-21T13:36:43;12.40;99.90
11736;DHT22;5924;51.398;7.088;2024-02-21T13:39:09;12.30;99.90
11736;DHT22;5924;51.398;7.088;2024-02-21T13:41:38;12.30;99.90
11736;DHT22;5924;51.398;7.088;2024-02-21T13:44:03;12.30;99.90
11736;DHT22;5924;51.398;7.088;2024-02-21T13:46:29;12.30;99.90
11736;DHT22;5924;51.398;7.088;2024-02-21T13:49:03;12.20;99.90
11736;DHT22;5924;51.398;7.088;2024-02-21T13:51:35;12.10;99.90
11736;DHT22;5924;51.398;7.088;2024-02-21T13:54:02;12.10;99.90
11736;DHT22;5924;51.398;7.088;2024-02-21T13:56:29;12.10;99.90
11736;DHT22;5924;51.398;7.088;2024-02-21T13:58:55;12.20;99.90
11736;DHT22;5924;51.398;7.088;2024-02-21T14:01:21;12.20;99.90
11736;DHT22;5924;51.398;7.088;2024-02-21T14:03:46;12.20;99.90
11736;DHT22;5924;51.398;7.088;2024-02-21T14:06:12;12.10;99.90
11736;DHT22;5924;51.398;7.088;2024-02-21T14:08:38;11.90;99.90
11736;DHT22;5924;51.398;7.088;2024-02-21T14:11:06;11.80;99.90
11736;DHT22;5924;51.398;7.088;2024-02-21T14:13:32;11.70;99.90
11736;DHT22;5924;51.398;7.088;2024-02-21T14:15:57;11.60;99.90
11736;DHT22;5924;51.398;7.088;2024-02-21T14:18:23;11.60;99.90
11736;DHT22;5924;51.398;7.088;2024-02-21T14:20:48;11.50;99.90
11736;DHT22;5924;51.398;7.088;2024-02-21T14:23:14;11.60;99.90
11736;DHT22;5924;51.398;7.088;2024-02-21T14:25:40;11.60;99.90
11736;DHT22;5924;51.398;7.088;2024-02-21T14:28:08;11.60;99.90
11736;DHT22;5924;51.398;7.088;2024-02-21T14:30:36;11.60;99.90
11736;DHT22;5924;51.398;7.088;2024-02-21T14:33:01;11.70;99.90
11736;DHT22;5924;51.398;7.088;2024-02-21T14:35:27;11.70;99.90
11736;DHT22;5924;51.398;7.088;2024-02-21T14:37:53;11.70;99.90
11736;DHT22;5924;51.398;7.088;2024-02-21T14:40:21;11.70;99.90
11736;DHT22;5924;51.398;7.088;2024-02-21T14:42:46;11.80;99.90
11736;DHT22;5924;51.398;7.088;2024-02-21T14:45:12;11.80;99.90
11736;DHT22;5924;51.398;7.088;2024-02-21T14:47:39;11.80;99.90
11736;DHT22;5924;51.398;7.088;2024-02-21T14:50:05;9.70;99.90
11736;DHT22;5924;51.398;7.088;2024-02-21T14:52:31;11.70;99.90
11736;DHT22;5924;51.398;7.088;2024-02-21T14:54:58;11.60;99.90
11736;DHT22;5924;51.398;7.088;2024-02-21T14:57:24;11.50;99.90
11736;DHT22;5924;51.398;7.088;2024-02-21T14:59:50;11.50;99.90
11736;DHT22;5924;51.398;7.088;2024-02-21T15:02:22;11.50;99.90
11736;DHT22;5924;51.398;7.088;2024-02-21T15:04:48;11.40;99.90
11736;DHT22;5924;51.398;7.088;2024-02-21T15:07:14;11.40;99.90
11736;DHT22;5924;51.398;7.088;2024-02-21T15:09:40;11.30;99.90
11736;DHT22;5924;51.398;7.088;2024-02-21T15:12:06;11.30;99.90
11736;DHT22;5924;51.398;7.088;2024-02-21T15:14:32;11.20;99.90
11736;DHT22;5924;51.398;7.088;2024-02-21T15:16:57;11.20;99.90
11736;DHT22;5924;51.398;7.088;2024-02-21T15:19:23;11.10;99.90
11736;DHT22;5924;51.398;7.088;2024-02-21T15:21:49;11.10;99.90
11736;DHT22;5924;51.398;7.088;2024-02-21T15:24:15;11.00;99.90
11736;DHT22;5924;51.398;7.088;2024-02-21T15:26:42;10.90;99.90
11736;DHT22;5924;51.398;7.088;2024-02-21T15:29:08;10.90;99.90
11736;DHT22;5924;51.398;7.088;2024-02-21T15:31:34;10.90;99.90
11736;DHT22;5924;51.398;7.088;2024-02-21T15:34:00;10.80;99.90
11736;DHT22;5924;51.398;7.088;2024-02-21T15:36:25;10.70;99.90
11736;DHT22;5924;51.398;7.088;2024-02-21T15:38:53;10.70;99.90
11736;DHT22;5924;51.398;7.088;2024-02-21T15:41:20;10.70;99.90
11736;DHT22;5924;51.398;7.088;2024-02-21T15:43:47;10.60;99.90
11736;DHT22;5924;51.398;7.088;2024-02-21T15:46:13;10.50;99.90
11736;DHT22;5924;51.398;7.088;2024-02-21T15:48:38;10.50;99.90
11736;DHT22;5924;51.398;7.088;2024-02-21T15:51:06;10.50;99.90
11736;DHT22;5924;51.398;7.088;2024-02-21T15:53:32;10.40;99.90
11736;DHT22;5924;51.398;7.088;2024-02-21T15:55:57;10.40;99.90
11736;DHT22;5924;51.398;7.088;2024-02-21T15:58:23;10.30;99.90